createdAt,value
2022-10-23T00:00:29.862Z,9.20
2022-10-23T00:03:27.163Z,9.20
2022-10-23T00:06:25.817Z,9.20
2022-10-23T00:09:24.860Z,9.10
2022-10-23T00:12:21.685Z,9.10
2022-10-23T00:15:22.699Z,9.30
2022-10-23T00:18:19.528Z,9.30
2022-10-23T00:21:18.383Z,9.20
2022-10-23T00:24:15.347Z,9.10
2022-10-23T00:27:12.166Z,9.10
2022-10-23T00:30:09.560Z,9.10
2022-10-23T00:33:06.455Z,9.20
2022-10-23T00:36:09.284Z,9.00
2022-10-23T00:39:06.700Z,8.90
2022-10-23T00:42:04.009Z,9.00
2022-10-23T00:45:22.810Z,8.90
2022-10-23T00:48:19.794Z,8.90
2022-10-23T00:51:17.070Z,8.90
2022-10-23T00:54:24.987Z,8.90
2022-10-23T00:57:22.412Z,8.90
2022-10-23T01:00:28.233Z,8.70
2022-10-23T01:03:28.445Z,8.80
2022-10-23T01:07:11.424Z,8.70
2022-10-23T01:10:32.267Z,8.70
2022-10-23T01:13:57.251Z,8.80
2022-10-23T01:17:12.457Z,8.80
2022-10-23T01:20:50.623Z,8.70
2022-10-23T01:24:15.055Z,8.60
2022-10-23T01:27:40.747Z,8.50
2022-10-23T01:30:42.776Z,8.50
2022-10-23T01:33:51.381Z,8.50
2022-10-23T01:36:51.105Z,8.50
2022-10-23T01:39:53.707Z,8.50
2022-10-23T01:42:56.660Z,8.40
2022-10-23T01:46:05.555Z,8.40
2022-10-23T01:49:05.591Z,8.40
2022-10-23T01:52:06.483Z,8.30
2022-10-23T01:55:04.583Z,8.30
2022-10-23T01:58:02.656Z,8.40
2022-10-23T02:01:03.797Z,8.30
2022-10-23T02:04:03.733Z,8.40
2022-10-23T02:07:00.641Z,8.30
2022-10-23T02:09:57.969Z,8.20
2022-10-23T02:13:07.760Z,8.30
2022-10-23T02:16:13.195Z,8.30
2022-10-23T02:19:24.702Z,8.20
2022-10-23T02:22:29.687Z,8.40
2022-10-23T02:25:42.152Z,8.20
2022-10-23T02:28:45.944Z,8.20
2022-10-23T02:31:42.968Z,8.30
2022-10-23T02:34:39.883Z,8.20
2022-10-23T02:37:36.939Z,8.20
2022-10-23T02:40:43.649Z,8.20
2022-10-23T02:44:13.714Z,8.10
2022-10-23T02:47:32.280Z,8.10
2022-10-23T02:51:14.873Z,8.00
2022-10-23T02:54:20.112Z,8.00
2022-10-23T02:57:41.891Z,8.10
2022-10-23T03:00:46.569Z,8.00
2022-10-23T03:03:53.491Z,8.00
2022-10-23T03:06:51.584Z,8.10
2022-10-23T03:09:48.667Z,8.10
2022-10-23T03:12:47.085Z,8.00
2022-10-23T03:15:44.395Z,8.10
2022-10-23T03:18:41.331Z,8.20
2022-10-23T03:21:38.147Z,8.20
2022-10-23T03:24:34.999Z,8.10
2022-10-23T03:27:32.288Z,8.10
2022-10-23T03:30:29.119Z,8.10
2022-10-23T03:33:26.005Z,8.10
2022-10-23T03:36:22.850Z,8.10
2022-10-23T03:39:19.692Z,8.20
2022-10-23T03:42:16.816Z,8.30
2022-10-23T03:45:13.740Z,8.00
2022-10-23T03:48:10.823Z,8.00
2022-10-23T03:51:07.970Z,8.00
2022-10-23T03:54:04.899Z,8.00
2022-10-23T03:57:02.294Z,8.00
2022-10-23T03:59:59.143Z,8.00
2022-10-23T04:02:56.010Z,8.00
2022-10-23T04:05:52.868Z,8.00
2022-10-23T04:08:49.688Z,8.00
2022-10-23T04:11:46.580Z,7.90
2022-10-23T04:14:43.478Z,7.90
2022-10-23T04:17:40.312Z,8.00
2022-10-23T04:20:37.128Z,8.00
2022-10-23T04:23:34.485Z,8.00
2022-10-23T04:26:31.334Z,8.00
2022-10-23T04:29:31.506Z,8.00
2022-10-23T04:32:28.358Z,7.90
2022-10-23T04:35:25.199Z,7.90
2022-10-23T04:38:22.059Z,7.90
2022-10-23T04:41:19.066Z,7.80
2022-10-23T04:44:16.387Z,7.90
2022-10-23T04:47:13.248Z,7.90
2022-10-23T04:50:10.159Z,7.90
2022-10-23T04:53:09.052Z,7.90
2022-10-23T04:56:06.892Z,7.90
2022-10-23T05:02:06.137Z,7.90
2022-10-23T05:05:03.136Z,7.90
2022-10-23T05:07:59.970Z,8.00
2022-10-23T05:10:57.294Z,8.10
2022-10-23T05:13:54.110Z,8.10
2022-10-23T05:17:00.997Z,8.20
2022-10-23T05:20:01.874Z,8.10
2022-10-23T05:22:59.958Z,8.00
2022-10-23T05:25:56.863Z,8.00
2022-10-23T05:28:53.785Z,8.00
2022-10-23T05:31:56.170Z,8.00
2022-10-23T05:34:53.790Z,8.00
2022-10-23T05:37:53.538Z,8.00
2022-10-23T05:40:52.863Z,8.10
2022-10-23T05:43:49.716Z,8.00
2022-10-23T05:46:46.853Z,8.00
2022-10-23T05:49:43.688Z,7.90
2022-10-23T05:52:40.997Z,7.90
2022-10-23T05:55:38.244Z,8.00
2022-10-23T05:58:35.390Z,7.90
2022-10-23T06:01:32.314Z,7.90
2022-10-23T06:04:29.270Z,7.90
2022-10-23T06:07:31.161Z,7.90
2022-10-23T06:10:32.002Z,7.90
2022-10-23T06:13:28.887Z,8.00
2022-10-23T06:16:26.968Z,8.00
2022-10-23T06:19:23.821Z,8.00
2022-10-23T06:25:22.405Z,8.20
2022-10-23T06:28:20.698Z,8.20
2022-10-23T06:31:19.612Z,8.20
2022-10-23T06:34:16.691Z,8.30
2022-10-23T06:37:13.563Z,8.30
2022-10-23T06:40:10.669Z,8.20
2022-10-23T06:43:08.615Z,8.20
2022-10-23T06:46:06.790Z,8.20
2022-10-23T06:49:04.278Z,8.30
2022-10-23T06:52:01.110Z,8.30
2022-10-23T06:54:58.273Z,8.40
2022-10-23T06:57:55.093Z,8.50
2022-10-23T07:00:52.027Z,8.60
2022-10-23T07:03:49.516Z,8.60
2022-10-23T07:06:46.548Z,8.70
2022-10-23T07:09:43.493Z,8.70
2022-10-23T07:12:40.677Z,8.70
2022-10-23T07:15:39.613Z,8.80
2022-10-23T07:18:36.444Z,8.90
2022-10-23T07:21:35.644Z,8.90
2022-10-23T07:24:36.971Z,8.90
2022-10-23T07:27:38.434Z,9.00
2022-10-23T07:30:35.297Z,9.00
2022-10-23T07:33:32.128Z,9.00
2022-10-23T07:36:29.251Z,9.00
2022-10-23T07:39:26.222Z,9.20
2022-10-23T07:42:23.057Z,9.30
2022-10-23T07:45:19.927Z,9.30
2022-10-23T07:48:17.111Z,9.50
2022-10-23T07:51:16.813Z,9.60
2022-10-23T07:54:13.716Z,9.70
2022-10-23T07:57:12.104Z,9.90
2022-10-23T08:00:11.725Z,9.90
2022-10-23T08:03:08.665Z,10.00
2022-10-23T08:06:05.700Z,10.10
2022-10-23T08:09:06.195Z,10.20
2022-10-23T08:12:04.537Z,10.30
2022-10-23T08:15:01.345Z,10.40
2022-10-23T08:17:58.205Z,10.60
2022-10-23T08:21:02.161Z,10.80
2022-10-23T08:24:00.755Z,10.90
2022-10-23T08:26:58.590Z,11.00
2022-10-23T08:29:55.508Z,11.20
2022-10-23T08:32:52.370Z,11.20
2022-10-23T08:35:49.540Z,11.40
2022-10-23T08:38:47.093Z,11.60
2022-10-23T08:41:50.500Z,11.70
2022-10-23T08:45:06.187Z,11.90
2022-10-23T08:48:26.314Z,12.00
2022-10-23T08:51:37.855Z,12.10
2022-10-23T08:54:51.533Z,12.40
2022-10-23T08:58:25.276Z,12.70
2022-10-23T09:01:46.550Z,13.10
2022-10-23T09:04:48.538Z,13.70
2022-10-23T09:08:22.025Z,14.00
2022-10-23T09:11:47.845Z,14.50
2022-10-23T09:14:56.272Z,14.80
2022-10-23T09:18:02.131Z,14.60
2022-10-23T09:20:59.049Z,14.70
2022-10-23T09:23:56.577Z,14.50
2022-10-23T09:26:54.361Z,15.20
2022-10-23T09:29:55.668Z,15.50
2022-10-23T09:32:57.589Z,15.50
2022-10-23T09:36:05.652Z,15.50
2022-10-23T09:39:02.658Z,15.20
2022-10-23T09:42:04.319Z,15.00
2022-10-23T09:45:01.786Z,15.00
2022-10-23T09:48:19.093Z,14.90
2022-10-23T09:51:21.049Z,15.20
2022-10-23T09:54:19.446Z,15.20
2022-10-23T09:57:35.673Z,15.30
2022-10-23T10:00:32.563Z,15.20
2022-10-23T10:03:29.478Z,15.10
2022-10-23T10:06:33.282Z,15.00
2022-10-23T10:09:30.193Z,15.20
2022-10-23T10:12:43.360Z,15.40
2022-10-23T10:15:57.410Z,15.60
2022-10-23T10:18:56.844Z,15.60
2022-10-23T10:22:31.164Z,15.60
2022-10-23T10:25:43.115Z,15.70
2022-10-23T10:29:35.590Z,15.90
2022-10-23T10:32:46.511Z,15.90
2022-10-23T10:36:02.927Z,16.10
2022-10-23T10:39:11.482Z,16.30
2022-10-23T10:42:30.376Z,16.20
2022-10-23T10:45:37.456Z,16.50
2022-10-23T10:48:42.194Z,16.80
2022-10-23T10:52:16.639Z,17.10
2022-10-23T10:55:53.661Z,17.20
2022-10-23T10:58:58.021Z,17.10
2022-10-23T11:02:31.517Z,17.40
2022-10-23T11:05:38.344Z,17.60
2022-10-23T11:08:49.992Z,17.10
2022-10-23T11:11:56.071Z,16.80
2022-10-23T11:14:53.091Z,16.60
2022-10-23T11:17:59.570Z,16.60
2022-10-23T11:21:24.099Z,16.70
2022-10-23T11:24:51.527Z,16.70
2022-10-23T11:28:33.262Z,16.90
2022-10-23T11:31:45.550Z,16.90
2022-10-23T11:35:06.971Z,17.00
2022-10-23T11:38:18.155Z,17.10
2022-10-23T11:41:27.050Z,17.30
2022-10-23T11:44:47.513Z,17.30
2022-10-23T11:47:44.304Z,17.40
2022-10-23T11:50:44.185Z,17.30
2022-10-23T11:53:41.099Z,17.40
2022-10-23T11:57:10.723Z,17.30
2022-10-23T12:00:24.210Z,17.30
2022-10-23T12:04:02.503Z,17.40
2022-10-23T12:07:05.292Z,17.30
2022-10-23T12:10:36.884Z,17.50
2022-10-23T12:13:39.472Z,17.40
2022-10-23T12:16:36.576Z,17.40
2022-10-23T12:19:52.291Z,17.80
2022-10-23T12:23:20.291Z,17.90
2022-10-23T12:26:17.004Z,17.80
2022-10-23T12:29:41.899Z,17.70
2022-10-23T12:33:09.832Z,17.60
2022-10-23T12:36:50.181Z,17.60
2022-10-23T12:39:54.618Z,17.70
2022-10-23T12:42:56.335Z,17.60
2022-10-23T12:45:54.704Z,17.70
2022-10-23T12:48:54.009Z,17.60
2022-10-23T12:52:05.156Z,17.20
2022-10-23T12:55:14.252Z,17.10
2022-10-23T12:58:30.015Z,17.00
2022-10-23T13:01:29.420Z,17.20
2022-10-23T13:04:28.898Z,17.10
2022-10-23T13:07:29.258Z,16.80
2022-10-23T13:10:26.852Z,16.90
2022-10-23T13:13:25.001Z,16.90
2022-10-23T13:16:24.923Z,16.90
2022-10-23T13:19:26.960Z,16.80
2022-10-23T13:22:24.564Z,16.90
2022-10-23T13:25:32.442Z,16.90
2022-10-23T13:28:35.105Z,17.00
2022-10-23T13:31:35.619Z,17.00
2022-10-23T13:34:32.450Z,16.60
2022-10-23T13:37:30.417Z,16.50
2022-10-23T13:40:28.185Z,16.30
2022-10-23T13:43:27.010Z,16.20
2022-10-23T13:46:25.737Z,16.20
2022-10-23T13:49:22.604Z,16.30
2022-10-23T13:52:23.446Z,16.30
2022-10-23T13:55:29.339Z,16.30
2022-10-23T13:58:26.164Z,16.50
2022-10-23T14:01:32.373Z,16.60
2022-10-23T14:04:29.456Z,16.80
2022-10-23T14:07:26.650Z,16.50
2022-10-23T14:10:25.714Z,16.60
2022-10-23T14:13:24.589Z,16.50
2022-10-23T14:16:21.748Z,16.30
2022-10-23T14:19:18.606Z,16.30
2022-10-23T14:22:15.491Z,16.30
2022-10-23T14:25:12.431Z,16.20
2022-10-23T14:28:09.337Z,16.30
2022-10-23T14:31:09.613Z,16.60
2022-10-23T14:34:06.664Z,16.50
2022-10-23T14:37:08.891Z,16.40
2022-10-23T14:40:07.084Z,16.60
2022-10-23T14:43:04.466Z,16.60
2022-10-23T14:46:10.538Z,16.60
2022-10-23T14:49:07.588Z,16.60
2022-10-23T14:52:06.077Z,16.50
2022-10-23T14:55:06.330Z,16.60
2022-10-23T14:58:03.255Z,16.80
2022-10-23T15:01:01.675Z,16.60
2022-10-23T15:03:58.770Z,16.50
2022-10-23T15:06:55.628Z,16.30
2022-10-23T15:09:52.451Z,16.20
2022-10-23T15:12:49.312Z,16.10
2022-10-23T15:15:46.406Z,15.80
2022-10-23T15:18:43.572Z,15.70
2022-10-23T15:21:40.412Z,15.80
2022-10-23T15:24:37.252Z,15.70
2022-10-23T15:27:34.756Z,15.50
2022-10-23T15:30:31.644Z,15.40
2022-10-23T15:33:28.675Z,15.20
2022-10-23T15:36:26.702Z,15.10
2022-10-23T15:39:27.623Z,15.20
2022-10-23T15:42:24.542Z,15.10
2022-10-23T15:45:21.516Z,14.90
2022-10-23T15:48:18.445Z,14.90
2022-10-23T15:51:15.350Z,14.70
2022-10-23T15:54:19.072Z,14.70
2022-10-23T15:57:15.962Z,14.60
2022-10-23T16:00:18.161Z,14.50
2022-10-23T16:03:16.500Z,14.50
2022-10-23T16:06:15.874Z,14.50
2022-10-23T16:09:13.425Z,14.30
2022-10-23T16:12:10.377Z,14.30
2022-10-23T16:15:08.261Z,14.20
2022-10-23T16:18:05.432Z,14.20
2022-10-23T16:21:02.355Z,14.20
2022-10-23T16:24:01.858Z,14.00
2022-10-23T16:26:59.268Z,14.00
2022-10-23T16:29:56.184Z,14.20
2022-10-23T16:32:54.824Z,14.10
2022-10-23T16:35:51.669Z,14.10
2022-10-23T16:38:48.595Z,14.10
2022-10-23T16:41:45.503Z,14.10
2022-10-23T16:44:42.356Z,14.20
2022-10-23T16:47:39.192Z,14.30
2022-10-23T16:53:44.451Z,14.10
2022-10-23T16:56:41.666Z,14.00
2022-10-23T16:59:38.683Z,14.20
2022-10-23T17:02:36.570Z,14.40
2022-10-23T17:05:34.986Z,14.40
2022-10-23T17:08:32.383Z,14.30
2022-10-23T17:11:35.755Z,14.40
2022-10-23T17:14:32.721Z,14.50
2022-10-23T17:17:29.580Z,14.50
2022-10-23T17:20:26.410Z,14.50
2022-10-23T17:23:23.324Z,14.80
2022-10-23T17:26:22.065Z,14.90
2022-10-23T17:29:19.037Z,14.70
2022-10-23T17:32:16.063Z,15.00
2022-10-23T17:35:13.173Z,14.90
2022-10-23T17:38:10.072Z,14.90
2022-10-23T17:41:08.323Z,15.00
2022-10-23T17:44:05.260Z,15.00
2022-10-23T17:47:02.202Z,14.80
2022-10-23T17:49:59.084Z,14.70
2022-10-23T17:52:55.902Z,14.60
2022-10-23T17:55:52.772Z,14.50
2022-10-23T17:58:51.624Z,14.40
2022-10-23T18:01:49.516Z,14.40
2022-10-23T18:04:46.508Z,14.40
2022-10-23T18:07:43.685Z,14.10
2022-10-23T18:10:40.720Z,14.20
2022-10-23T18:13:37.832Z,14.20
2022-10-23T18:16:37.191Z,14.10
2022-10-23T18:19:34.263Z,14.20
2022-10-23T18:22:33.156Z,14.10
2022-10-23T18:25:30.066Z,14.20
2022-10-23T18:28:28.526Z,14.20
2022-10-23T18:31:30.331Z,14.20
2022-10-23T18:34:27.197Z,14.00
2022-10-23T18:37:26.788Z,14.00
2022-10-23T18:40:27.979Z,14.00
2022-10-23T18:43:42.477Z,14.00
2022-10-23T18:46:40.468Z,13.90
2022-10-23T18:49:37.288Z,13.90
2022-10-23T18:52:34.273Z,14.00
2022-10-23T18:55:31.254Z,14.10
2022-10-23T18:58:28.160Z,14.00
2022-10-23T19:01:27.220Z,14.20
2022-10-23T19:04:24.315Z,14.30
2022-10-23T19:07:21.703Z,14.30
2022-10-23T19:10:20.854Z,14.20
2022-10-23T19:13:17.676Z,14.40
2022-10-23T19:16:52.999Z,14.60
2022-10-23T19:20:01.785Z,14.60
2022-10-23T19:23:00.398Z,14.50
2022-10-23T19:25:57.549Z,14.60
2022-10-23T19:28:54.380Z,14.30
2022-10-23T19:31:51.716Z,14.10
2022-10-23T19:34:48.614Z,14.20
2022-10-23T19:37:46.177Z,14.20
2022-10-23T19:40:43.244Z,14.00
2022-10-23T19:43:40.061Z,13.90
2022-10-23T19:46:37.887Z,13.80
2022-10-23T19:49:34.731Z,14.00
2022-10-23T19:52:31.619Z,14.10
2022-10-23T19:55:28.503Z,13.90
2022-10-23T19:58:25.440Z,13.80
2022-10-23T20:01:25.485Z,13.70
2022-10-23T20:04:22.423Z,13.60
2022-10-23T20:07:19.302Z,13.50
2022-10-23T20:10:16.475Z,13.50
2022-10-23T20:13:19.786Z,13.50
2022-10-23T20:16:24.234Z,13.50
2022-10-23T20:19:21.070Z,13.60
2022-10-23T20:22:18.341Z,13.60
2022-10-23T20:25:15.230Z,13.60
2022-10-23T20:28:14.389Z,13.50
2022-10-23T20:31:14.016Z,13.40
2022-10-23T20:34:12.169Z,13.30
2022-10-23T20:37:09.219Z,13.20
2022-10-23T20:40:06.854Z,13.10
2022-10-23T20:43:04.297Z,13.00
2022-10-23T20:46:09.299Z,13.00
2022-10-23T20:49:06.168Z,13.10
2022-10-23T20:52:03.136Z,13.00
2022-10-23T20:54:59.946Z,13.00
2022-10-23T20:57:56.803Z,13.00
2022-10-23T21:00:53.610Z,13.00
2022-10-23T21:03:58.462Z,12.90
2022-10-23T21:07:09.367Z,12.90
2022-10-23T21:10:07.787Z,12.80
2022-10-23T21:13:04.606Z,12.70
2022-10-23T21:16:10.770Z,12.70
2022-10-23T21:19:10.299Z,12.60
2022-10-23T21:22:07.144Z,12.50
2022-10-23T21:25:04.381Z,12.50
2022-10-23T21:28:01.191Z,12.40
2022-10-23T21:31:08.089Z,12.40
2022-10-23T21:34:05.740Z,12.40
2022-10-23T21:37:18.131Z,12.40
2022-10-23T21:40:15.138Z,12.40
2022-10-23T21:43:11.994Z,12.40
2022-10-23T21:46:16.924Z,12.30
2022-10-23T21:49:13.793Z,12.20
2022-10-23T21:52:10.690Z,12.10
2022-10-23T21:55:08.118Z,12.20
2022-10-23T21:58:04.950Z,12.40
2022-10-23T22:01:01.912Z,12.40
2022-10-23T22:03:58.795Z,12.40
2022-10-23T22:06:55.671Z,12.50
2022-10-23T22:09:52.496Z,12.40
2022-10-23T22:12:49.302Z,12.20
2022-10-23T22:15:46.120Z,12.30
2022-10-23T22:18:44.030Z,12.30
2022-10-23T22:21:41.789Z,12.30
2022-10-23T22:24:38.631Z,12.30
2022-10-23T22:27:38.237Z,12.20
2022-10-23T22:30:37.969Z,12.30
2022-10-23T22:33:34.788Z,12.30
2022-10-23T22:36:31.662Z,12.20
2022-10-23T22:39:28.499Z,12.20
2022-10-23T22:42:25.377Z,12.40
2022-10-23T22:45:22.191Z,12.30
2022-10-23T22:48:19.023Z,12.20
2022-10-23T22:51:20.268Z,12.10
2022-10-23T22:54:17.130Z,12.00
2022-10-23T22:57:14.058Z,12.10
2022-10-23T23:00:11.730Z,12.10
2022-10-23T23:03:08.626Z,12.10
2022-10-23T23:06:07.460Z,12.20
2022-10-23T23:09:04.533Z,12.10
2022-10-23T23:12:01.440Z,12.10
2022-10-23T23:15:00.252Z,12.20
2022-10-23T23:17:57.439Z,12.10
2022-10-23T23:20:54.306Z,12.10
2022-10-23T23:23:51.209Z,12.30
2022-10-23T23:26:48.032Z,12.30
2022-10-23T23:29:44.874Z,12.30
2022-10-23T23:32:41.987Z,12.40
2022-10-23T23:35:44.628Z,12.40
2022-10-23T23:38:41.994Z,12.40
2022-10-23T23:41:38.979Z,12.50
2022-10-23T23:44:41.954Z,12.90
2022-10-23T23:47:47.420Z,12.80
2022-10-23T23:50:44.513Z,12.90
2022-10-23T23:53:41.386Z,13.10
2022-10-23T23:56:38.308Z,13.10
2022-10-23T23:59:40.389Z,13.10
